VJC639 VVDN-VVTS
Flight info
| Callsign | VJC639 |
|---|---|
| Flight time | 1h 3m |
| Altitude | 36000 |
| Route | SADIN1A SADIN Q1 DOVIN DOVIN5E |
| Aircraft | A320/M-SDE3FGHIRWY/LB1 |
Departure
| Time | 2026-04-23 10:46 |
|---|---|
| Airport | Da Nang International Airport (VVDN) |
Arrival
| Time | 2026-04-23 11:49 |
|---|---|
| Airport | Tan Son Nhat International Airport (VVTS) |
| Time | Latitude | Longitude | Altitude | Speed | Heading |
|---|---|---|---|---|---|
| 2026-04-23 10:14 | 16.05368 | 108.20176 | 7 ft | 0 kts | 84° |
| 2026-04-23 10:37 | 16.05368 | 108.20171 | 33 ft | 2 kts | 84° |
| 2026-04-23 10:37 | 16.05366 | 108.20151 | 33 ft | 3 kts | 84° |
| 2026-04-23 10:37 | 16.05364 | 108.20130 | 32 ft | 3 kts | 84° |
| 2026-04-23 10:38 | 16.05362 | 108.20109 | 33 ft | 3 kts | 85° |
| 2026-04-23 10:38 | 16.05361 | 108.20088 | 34 ft | 3 kts | 89° |
| 2026-04-23 10:38 | 16.05361 | 108.20067 | 34 ft | 3 kts | 97° |
| 2026-04-23 10:38 | 16.05366 | 108.20048 | 33 ft | 3 kts | 128° |
| 2026-04-23 10:39 | 16.05373 | 108.20040 | 31 ft | 1 kts | 171° |
| 2026-04-23 10:39 | 16.05374 | 108.20040 | 31 ft | 0 kts | 172° |
| 2026-04-23 10:41 | 16.05350 | 108.20043 | 31 ft | 11 kts | 172° |
| 2026-04-23 10:41 | 16.05237 | 108.20060 | 34 ft | 18 kts | 172° |
| 2026-04-23 10:41 | 16.05109 | 108.20078 | 34 ft | 20 kts | 172° |
| 2026-04-23 10:41 | 16.04967 | 108.20099 | 33 ft | 22 kts | 172° |
| 2026-04-23 10:42 | 16.04814 | 108.20122 | 33 ft | 23 kts | 172° |
| 2026-04-23 10:42 | 16.04651 | 108.20145 | 34 ft | 24 kts | 172° |
| 2026-04-23 10:42 | 16.04480 | 108.20170 | 33 ft | 25 kts | 172° |
| 2026-04-23 10:42 | 16.04303 | 108.20195 | 34 ft | 26 kts | 172° |
| 2026-04-23 10:43 | 16.04122 | 108.20222 | 34 ft | 26 kts | 172° |
| 2026-04-23 10:43 | 16.03938 | 108.20249 | 35 ft | 27 kts | 171° |
| 2026-04-23 10:43 | 16.03752 | 108.20273 | 35 ft | 27 kts | 170° |
| 2026-04-23 10:43 | 16.03563 | 108.20302 | 35 ft | 28 kts | 172° |
| 2026-04-23 10:44 | 16.03369 | 108.20330 | 34 ft | 29 kts | 172° |
| 2026-04-23 10:44 | 16.03171 | 108.20359 | 33 ft | 29 kts | 172° |
| 2026-04-23 10:44 | 16.03005 | 108.20381 | 33 ft | 17 kts | 179° |
| 2026-04-23 10:44 | 16.02923 | 108.20308 | 31 ft | 14 kts | 252° |
| 2026-04-23 10:45 | 16.02966 | 108.20250 | 31 ft | 10 kts | 339° |
| 2026-04-23 10:45 | 16.02994 | 108.20244 | 31 ft | 0 kts | 352° |
| 2026-04-23 10:45 | 16.03022 | 108.20240 | 31 ft | 21 kts | 352° |
| 2026-04-23 10:45 | 16.03443 | 108.20179 | 33 ft | 96 kts | 352° |
| 2026-04-23 10:46 | 16.04306 | 108.20053 | 32 ft | 152 kts | 352° |
| 2026-04-23 10:46 | 16.05472 | 108.19888 | 305 ft | 174 kts | 355° |
| 2026-04-23 10:46 | 16.06679 | 108.19770 | 949 ft | 174 kts | 359° |
| 2026-04-23 10:46 | 16.07889 | 108.19726 | 1663 ft | 173 kts | 0° |
| 2026-04-23 10:47 | 16.09133 | 108.19697 | 2085 ft | 188 kts | 0° |
| 2026-04-23 10:47 | 16.10516 | 108.19667 | 2321 ft | 210 kts | 1° |
| 2026-04-23 10:47 | 16.12062 | 108.19633 | 2565 ft | 235 kts | 360° |
| 2026-04-23 10:47 | 16.13778 | 108.19590 | 2964 ft | 256 kts | 359° |
| 2026-04-23 10:48 | 16.15588 | 108.19639 | 3654 ft | 264 kts | 13° |
| 2026-04-23 10:48 | 16.17180 | 108.20556 | 4435 ft | 270 kts | 47° |
| 2026-04-23 10:48 | 16.18037 | 108.22295 | 5202 ft | 277 kts | 77° |
| 2026-04-23 10:48 | 16.18203 | 108.24306 | 5972 ft | 283 kts | 91° |
| 2026-04-23 10:49 | 16.18088 | 108.26372 | 6727 ft | 287 kts | 96° |
| 2026-04-23 10:49 | 16.17913 | 108.28451 | 7512 ft | 290 kts | 96° |
| 2026-04-23 10:49 | 16.17770 | 108.30557 | 8285 ft | 293 kts | 95° |
| 2026-04-23 10:49 | 16.17686 | 108.32690 | 9045 ft | 298 kts | 92° |
| 2026-04-23 10:50 | 16.17626 | 108.34853 | 9816 ft | 300 kts | 97° |
| 2026-04-23 10:50 | 16.16981 | 108.36891 | 10471 ft | 299 kts | 127° |
| 2026-04-23 10:50 | 16.15471 | 108.38345 | 11146 ft | 299 kts | 154° |
| 2026-04-23 10:50 | 16.13488 | 108.38871 | 11688 ft | 306 kts | 178° |
| 2026-04-23 10:51 | 16.11285 | 108.38953 | 11850 ft | 329 kts | 180° |
| 2026-04-23 10:51 | 16.08951 | 108.38972 | 12288 ft | 340 kts | 180° |
| 2026-04-23 10:51 | 16.06576 | 108.38972 | 12968 ft | 342 kts | 181° |
| 2026-04-23 10:51 | 16.04170 | 108.38974 | 13520 ft | 350 kts | 180° |
| 2026-04-23 10:52 | 16.01721 | 108.38986 | 14079 ft | 353 kts | 180° |
| 2026-04-23 10:52 | 15.99254 | 108.39010 | 14634 ft | 357 kts | 180° |
| 2026-04-23 10:52 | 15.96768 | 108.39040 | 15260 ft | 358 kts | 181° |
| 2026-04-23 10:52 | 15.94262 | 108.39074 | 15758 ft | 363 kts | 181° |
| 2026-04-23 10:53 | 15.91727 | 108.39111 | 16315 ft | 366 kts | 181° |
| 2026-04-23 10:53 | 15.89162 | 108.39148 | 16791 ft | 371 kts | 180° |
| 2026-04-23 10:53 | 15.86566 | 108.39185 | 17341 ft | 374 kts | 180° |
| 2026-04-23 10:53 | 15.83952 | 108.39218 | 17890 ft | 377 kts | 180° |
| 2026-04-23 10:54 | 15.81314 | 108.39249 | 18363 ft | 380 kts | 180° |
| 2026-04-23 10:54 | 15.78653 | 108.39281 | 18812 ft | 383 kts | 181° |
| 2026-04-23 10:54 | 15.75977 | 108.39314 | 19263 ft | 386 kts | 180° |
| 2026-04-23 10:54 | 15.73276 | 108.39349 | 19714 ft | 389 kts | 181° |
| 2026-04-23 10:55 | 15.70566 | 108.39382 | 20193 ft | 391 kts | 179° |
| 2026-04-23 10:55 | 15.67838 | 108.39417 | 20625 ft | 394 kts | 179° |
| 2026-04-23 10:55 | 15.65084 | 108.39457 | 21012 ft | 397 kts | 181° |
| 2026-04-23 10:55 | 15.62341 | 108.39495 | 21423 ft | 400 kts | 181° |
| 2026-04-23 10:56 | 15.59514 | 108.39527 | 21876 ft | 402 kts | 181° |
| 2026-04-23 10:56 | 15.56745 | 108.39520 | 22269 ft | 404 kts | 185° |
| 2026-04-23 10:56 | 15.53925 | 108.39088 | 22680 ft | 406 kts | 195° |
| 2026-04-23 10:56 | 15.51244 | 108.38144 | 23045 ft | 409 kts | 205° |
| 2026-04-23 10:57 | 15.48684 | 108.36923 | 23403 ft | 412 kts | 205° |
| 2026-04-23 10:57 | 15.46074 | 108.35678 | 23723 ft | 415 kts | 205° |
| 2026-04-23 10:57 | 15.43440 | 108.34428 | 24061 ft | 417 kts | 205° |
| 2026-04-23 10:57 | 15.40794 | 108.33178 | 24412 ft | 419 kts | 205° |
| 2026-04-23 10:58 | 15.38132 | 108.31925 | 24759 ft | 421 kts | 205° |
| 2026-04-23 10:58 | 15.35452 | 108.30664 | 25092 ft | 424 kts | 205° |
| 2026-04-23 10:58 | 15.32764 | 108.29398 | 25420 ft | 426 kts | 205° |
| 2026-04-23 10:58 | 15.30057 | 108.28122 | 25743 ft | 428 kts | 205° |
| 2026-04-23 10:59 | 15.27340 | 108.26840 | 26090 ft | 430 kts | 205° |
| 2026-04-23 10:59 | 15.24605 | 108.25552 | 26415 ft | 433 kts | 205° |
| 2026-04-23 10:59 | 15.21851 | 108.24254 | 26724 ft | 435 kts | 205° |
| 2026-04-23 10:59 | 15.19090 | 108.22952 | 27016 ft | 438 kts | 205° |
| 2026-04-23 11:00 | 15.16311 | 108.21642 | 27326 ft | 440 kts | 205° |
| 2026-04-23 11:00 | 15.13519 | 108.20324 | 27626 ft | 442 kts | 205° |
| 2026-04-23 11:00 | 15.10705 | 108.19019 | 27917 ft | 444 kts | 201° |
| 2026-04-23 11:00 | 15.07746 | 108.18071 | 28203 ft | 447 kts | 192° |
| 2026-04-23 11:01 | 15.04662 | 108.17646 | 28494 ft | 449 kts | 182° |
| 2026-04-23 11:01 | 15.01533 | 108.17581 | 28803 ft | 451 kts | 181° |
| 2026-04-23 11:01 | 14.98388 | 108.17521 | 29095 ft | 453 kts | 181° |
| 2026-04-23 11:01 | 14.95232 | 108.17453 | 29384 ft | 455 kts | 181° |
| 2026-04-23 11:02 | 14.92057 | 108.17380 | 29682 ft | 457 kts | 181° |
| 2026-04-23 11:02 | 14.88870 | 108.17307 | 29957 ft | 459 kts | 180° |
| 2026-04-23 11:02 | 14.85708 | 108.17265 | 30100 ft | 463 kts | 176° |
| 2026-04-23 11:02 | 14.82451 | 108.17293 | 30098 ft | 468 kts | 179° |
| 2026-04-23 11:03 | 14.79195 | 108.17253 | 30449 ft | 467 kts | 181° |
| 2026-04-23 11:03 | 14.75952 | 108.17145 | 30710 ft | 468 kts | 181° |
| 2026-04-23 11:03 | 14.72693 | 108.17012 | 30950 ft | 469 kts | 181° |
| 2026-04-23 11:03 | 14.69429 | 108.16883 | 31184 ft | 470 kts | 181° |
| 2026-04-23 11:04 | 14.66158 | 108.16774 | 31488 ft | 469 kts | 181° |
| 2026-04-23 11:04 | 14.62893 | 108.16692 | 31828 ft | 468 kts | 181° |
| 2026-04-23 11:04 | 14.59641 | 108.16624 | 32168 ft | 467 kts | 181° |
| 2026-04-23 11:04 | 14.56399 | 108.16565 | 32526 ft | 465 kts | 180° |
| 2026-04-23 11:05 | 14.53171 | 108.16506 | 32882 ft | 464 kts | 180° |
| 2026-04-23 11:05 | 14.49946 | 108.16443 | 33226 ft | 463 kts | 180° |
| 2026-04-23 11:05 | 14.46729 | 108.16377 | 33558 ft | 462 kts | 181° |
| 2026-04-23 11:05 | 14.43517 | 108.16307 | 33905 ft | 461 kts | 180° |
| 2026-04-23 11:06 | 14.37099 | 108.16165 | 34418 ft | 461 kts | 181° |
| 2026-04-23 11:06 | 14.33888 | 108.16093 | 34671 ft | 461 kts | 181° |
| 2026-04-23 11:06 | 14.30685 | 108.16019 | 34926 ft | 461 kts | 181° |
| 2026-04-23 11:07 | 14.27473 | 108.15947 | 35134 ft | 461 kts | 181° |
| 2026-04-23 11:07 | 14.24309 | 108.15878 | 35410 ft | 460 kts | 181° |
| 2026-04-23 11:07 | 14.21104 | 108.15809 | 35599 ft | 461 kts | 181° |
| 2026-04-23 11:07 | 14.17891 | 108.15741 | 35779 ft | 462 kts | 181° |
| 2026-04-23 11:08 | 14.14683 | 108.15673 | 35828 ft | 459 kts | 181° |
| 2026-04-23 11:08 | 14.08315 | 108.15541 | 35830 ft | 457 kts | 181° |
| 2026-04-23 11:09 | 14.01953 | 108.15403 | 35821 ft | 456 kts | 181° |
| 2026-04-23 11:09 | 13.96679 | 108.15285 | 35822 ft | 456 kts | 181° |
| 2026-04-23 11:10 | 13.90340 | 108.15149 | 35810 ft | 455 kts | 181° |
| 2026-04-23 11:10 | 13.82966 | 108.14985 | 35806 ft | 455 kts | 180° |
| 2026-04-23 11:11 | 13.77646 | 108.14867 | 35791 ft | 456 kts | 180° |
| 2026-04-23 11:11 | 13.71329 | 108.14731 | 35794 ft | 457 kts | 180° |
| 2026-04-23 11:12 | 13.63903 | 108.14568 | 35786 ft | 456 kts | 180° |
| 2026-04-23 11:12 | 13.58627 | 108.14451 | 35790 ft | 456 kts | 181° |
| 2026-04-23 11:13 | 13.52277 | 108.14310 | 35781 ft | 456 kts | 180° |
| 2026-04-23 11:13 | 13.45928 | 108.14172 | 35789 ft | 455 kts | 180° |
| 2026-04-23 11:14 | 13.39592 | 108.14037 | 35794 ft | 455 kts | 180° |
| 2026-04-23 11:14 | 13.33255 | 108.13900 | 35794 ft | 455 kts | 180° |
| 2026-04-23 11:15 | 13.26971 | 108.13751 | 35791 ft | 455 kts | 180° |
| 2026-04-23 11:15 | 13.20648 | 108.13597 | 35799 ft | 454 kts | 180° |
| 2026-04-23 11:16 | 13.14330 | 108.13441 | 35795 ft | 454 kts | 180° |
| 2026-04-23 11:16 | 13.08001 | 108.13286 | 35799 ft | 454 kts | 180° |
| 2026-04-23 11:17 | 13.01686 | 108.13132 | 35794 ft | 454 kts | 180° |
| 2026-04-23 11:17 | 12.95361 | 108.12986 | 35800 ft | 454 kts | 180° |
| 2026-04-23 11:18 | 12.89046 | 108.12835 | 35803 ft | 454 kts | 180° |
| 2026-04-23 11:18 | 12.82769 | 108.12682 | 35804 ft | 454 kts | 180° |
| 2026-04-23 11:19 | 12.76449 | 108.12534 | 35803 ft | 454 kts | 180° |
| 2026-04-23 11:19 | 12.70138 | 108.12379 | 35815 ft | 453 kts | 180° |
| 2026-04-23 11:20 | 12.63819 | 108.12234 | 35816 ft | 453 kts | 180° |
| 2026-04-23 11:20 | 12.57512 | 108.12110 | 35814 ft | 453 kts | 180° |
| 2026-04-23 11:21 | 12.51213 | 108.11984 | 35825 ft | 453 kts | 180° |
| 2026-04-23 11:21 | 12.44912 | 108.11859 | 35823 ft | 453 kts | 180° |
| 2026-04-23 11:22 | 12.38605 | 108.11737 | 35841 ft | 453 kts | 180° |
| 2026-04-23 11:22 | 12.32302 | 108.11617 | 35843 ft | 453 kts | 180° |
| 2026-04-23 11:23 | 12.25984 | 108.11493 | 35655 ft | 454 kts | 179° |
| 2026-04-23 11:23 | 12.22868 | 108.11432 | 35422 ft | 453 kts | 179° |
| 2026-04-23 11:23 | 12.19725 | 108.11367 | 35185 ft | 452 kts | 179° |
| 2026-04-23 11:23 | 12.16586 | 108.11301 | 34957 ft | 450 kts | 180° |
| 2026-04-23 11:24 | 12.13465 | 108.11239 | 34752 ft | 447 kts | 180° |
| 2026-04-23 11:24 | 12.10367 | 108.11178 | 34463 ft | 443 kts | 180° |
| 2026-04-23 11:24 | 12.07292 | 108.11117 | 33933 ft | 442 kts | 180° |
| 2026-04-23 11:24 | 12.04219 | 108.11054 | 33344 ft | 440 kts | 180° |
| 2026-04-23 11:25 | 12.01170 | 108.10993 | 32824 ft | 437 kts | 180° |
| 2026-04-23 11:25 | 11.98137 | 108.10934 | 32284 ft | 434 kts | 180° |
| 2026-04-23 11:25 | 11.95128 | 108.10792 | 31763 ft | 432 kts | 187° |
| 2026-04-23 11:25 | 11.92206 | 108.10113 | 31235 ft | 430 kts | 199° |
| 2026-04-23 11:26 | 11.89489 | 108.08857 | 30732 ft | 428 kts | 211° |
| 2026-04-23 11:26 | 11.87064 | 108.07106 | 30227 ft | 426 kts | 218° |
| 2026-04-23 11:26 | 11.84732 | 108.05238 | 29682 ft | 424 kts | 218° |
| 2026-04-23 11:26 | 11.82419 | 108.03389 | 29190 ft | 420 kts | 218° |
| 2026-04-23 11:27 | 11.80129 | 108.01566 | 28690 ft | 415 kts | 217° |
| 2026-04-23 11:27 | 11.77862 | 107.99765 | 28231 ft | 411 kts | 218° |
| 2026-04-23 11:27 | 11.75618 | 107.97979 | 27764 ft | 406 kts | 218° |
| 2026-04-23 11:27 | 11.73405 | 107.96211 | 27299 ft | 402 kts | 218° |
| 2026-04-23 11:28 | 11.71238 | 107.94478 | 26852 ft | 398 kts | 218° |
| 2026-04-23 11:28 | 11.69066 | 107.92741 | 26373 ft | 395 kts | 218° |
| 2026-04-23 11:28 | 11.66911 | 107.91021 | 25933 ft | 392 kts | 218° |
| 2026-04-23 11:28 | 11.64769 | 107.89314 | 25446 ft | 389 kts | 218° |
| 2026-04-23 11:29 | 11.62639 | 107.87619 | 24960 ft | 387 kts | 218° |
| 2026-04-23 11:29 | 11.60520 | 107.85931 | 24463 ft | 386 kts | 218° |
| 2026-04-23 11:29 | 11.58410 | 107.84250 | 23975 ft | 384 kts | 218° |
| 2026-04-23 11:29 | 11.56305 | 107.82572 | 23474 ft | 384 kts | 218° |
| 2026-04-23 11:30 | 11.54203 | 107.80897 | 22903 ft | 382 kts | 218° |
| 2026-04-23 11:30 | 11.52108 | 107.79229 | 22424 ft | 380 kts | 218° |
| 2026-04-23 11:30 | 11.50033 | 107.77578 | 21933 ft | 377 kts | 218° |
| 2026-04-23 11:30 | 11.47973 | 107.75936 | 21445 ft | 375 kts | 218° |
| 2026-04-23 11:31 | 11.45926 | 107.74302 | 20964 ft | 371 kts | 218° |
| 2026-04-23 11:31 | 11.43938 | 107.72719 | 20494 ft | 364 kts | 218° |
| 2026-04-23 11:31 | 11.41938 | 107.71129 | 20032 ft | 357 kts | 218° |
| 2026-04-23 11:31 | 11.39991 | 107.69580 | 19515 ft | 353 kts | 218° |
| 2026-04-23 11:32 | 11.38073 | 107.68054 | 19083 ft | 347 kts | 218° |
| 2026-04-23 11:32 | 11.36212 | 107.66575 | 18663 ft | 342 kts | 217° |
| 2026-04-23 11:32 | 11.34351 | 107.65097 | 18242 ft | 336 kts | 218° |
| 2026-04-23 11:32 | 11.32519 | 107.63642 | 17785 ft | 332 kts | 218° |
| 2026-04-23 11:33 | 11.30708 | 107.62206 | 17384 ft | 329 kts | 218° |
| 2026-04-23 11:33 | 11.28905 | 107.60772 | 16979 ft | 329 kts | 218° |
| 2026-04-23 11:33 | 11.27104 | 107.59340 | 16572 ft | 329 kts | 218° |
| 2026-04-23 11:33 | 11.25302 | 107.57904 | 16177 ft | 329 kts | 218° |
| 2026-04-23 11:34 | 11.23500 | 107.56467 | 15781 ft | 329 kts | 218° |
| 2026-04-23 11:34 | 11.21696 | 107.55031 | 15395 ft | 329 kts | 218° |
| 2026-04-23 11:34 | 11.19889 | 107.53593 | 15008 ft | 330 kts | 218° |
| 2026-04-23 11:34 | 11.18077 | 107.52155 | 14614 ft | 330 kts | 218° |
| 2026-04-23 11:35 | 11.16264 | 107.50719 | 14214 ft | 331 kts | 218° |
| 2026-04-23 11:35 | 11.14438 | 107.49273 | 13821 ft | 332 kts | 218° |
| 2026-04-23 11:35 | 11.12611 | 107.47826 | 13389 ft | 333 kts | 218° |
| 2026-04-23 11:35 | 11.10781 | 107.46374 | 12965 ft | 332 kts | 218° |
| 2026-04-23 11:36 | 11.08988 | 107.44949 | 12564 ft | 331 kts | 218° |
| 2026-04-23 11:36 | 11.07181 | 107.43513 | 12158 ft | 326 kts | 218° |
| 2026-04-23 11:36 | 11.05424 | 107.42120 | 11761 ft | 314 kts | 218° |
| 2026-04-23 11:36 | 11.03713 | 107.40765 | 11369 ft | 311 kts | 218° |
| 2026-04-23 11:37 | 11.02145 | 107.39259 | 10973 ft | 311 kts | 231° |
| 2026-04-23 11:37 | 11.01017 | 107.37386 | 10671 ft | 309 kts | 246° |
| 2026-04-23 11:37 | 11.00339 | 107.35327 | 10388 ft | 306 kts | 253° |
| 2026-04-23 11:37 | 10.99729 | 107.33262 | 10122 ft | 304 kts | 253° |
| 2026-04-23 11:38 | 10.99120 | 107.31204 | 9841 ft | 304 kts | 252° |
| 2026-04-23 11:38 | 10.98512 | 107.29151 | 9656 ft | 302 kts | 253° |
| 2026-04-23 11:38 | 10.97903 | 107.27108 | 9465 ft | 302 kts | 250° |
| 2026-04-23 11:38 | 10.97110 | 107.25141 | 9299 ft | 300 kts | 248° |
| 2026-04-23 11:39 | 10.96438 | 107.23141 | 9176 ft | 299 kts | 252° |
| 2026-04-23 11:39 | 10.95869 | 107.21098 | 9051 ft | 299 kts | 255° |
| 2026-04-23 11:39 | 10.95335 | 107.19055 | 8927 ft | 299 kts | 254° |
| 2026-04-23 11:39 | 10.94795 | 107.17012 | 8798 ft | 299 kts | 254° |
| 2026-04-23 11:40 | 10.94237 | 107.14980 | 8673 ft | 297 kts | 253° |
| 2026-04-23 11:40 | 10.93666 | 107.12967 | 8550 ft | 296 kts | 253° |
| 2026-04-23 11:40 | 10.93089 | 107.10984 | 8427 ft | 295 kts | 252° |
| 2026-04-23 11:40 | 10.92501 | 107.08991 | 8183 ft | 293 kts | 252° |
| 2026-04-23 11:41 | 10.91907 | 107.06993 | 7871 ft | 288 kts | 252° |
| 2026-04-23 11:41 | 10.91329 | 107.05044 | 7382 ft | 286 kts | 252° |
| 2026-04-23 11:41 | 10.90764 | 107.03137 | 6939 ft | 277 kts | 253° |
| 2026-04-23 11:41 | 10.90217 | 107.01291 | 6522 ft | 268 kts | 252° |
| 2026-04-23 11:42 | 10.89688 | 106.99502 | 6111 ft | 260 kts | 253° |
| 2026-04-23 11:42 | 10.89184 | 106.97791 | 5700 ft | 252 kts | 253° |
| 2026-04-23 11:42 | 10.88690 | 106.96111 | 5314 ft | 244 kts | 252° |
| 2026-04-23 11:42 | 10.88215 | 106.94498 | 5133 ft | 231 kts | 253° |
| 2026-04-23 11:43 | 10.87754 | 106.92943 | 5064 ft | 226 kts | 252° |
| 2026-04-23 11:43 | 10.87324 | 106.91438 | 4966 ft | 217 kts | 257° |
| 2026-04-23 11:43 | 10.87173 | 106.89943 | 4847 ft | 211 kts | 271° |
| 2026-04-23 11:43 | 10.87345 | 106.88462 | 4537 ft | 210 kts | 278° |
| 2026-04-23 11:44 | 10.87585 | 106.87007 | 4237 ft | 207 kts | 278° |
| 2026-04-23 11:44 | 10.87821 | 106.85559 | 3970 ft | 208 kts | 278° |
| 2026-04-23 11:44 | 10.88055 | 106.84124 | 3701 ft | 203 kts | 277° |
| 2026-04-23 11:44 | 10.88250 | 106.82720 | 3410 ft | 197 kts | 270° |
| 2026-04-23 11:45 | 10.88091 | 106.81368 | 3072 ft | 193 kts | 251° |
| 2026-04-23 11:45 | 10.87666 | 106.80088 | 2762 ft | 188 kts | 246° |
| 2026-04-23 11:45 | 10.87217 | 106.78872 | 2514 ft | 179 kts | 246° |
| 2026-04-23 11:45 | 10.86783 | 106.77712 | 2291 ft | 172 kts | 246° |
| 2026-04-23 11:46 | 10.86372 | 106.76620 | 2069 ft | 162 kts | 246° |
| 2026-04-23 11:46 | 10.85977 | 106.75573 | 1873 ft | 156 kts | 244° |
| 2026-04-23 11:46 | 10.85600 | 106.74571 | 1696 ft | 149 kts | 244° |
| 2026-04-23 11:46 | 10.85235 | 106.73605 | 1493 ft | 144 kts | 244° |
| 2026-04-23 11:47 | 10.84874 | 106.72650 | 1305 ft | 144 kts | 244° |
| 2026-04-23 11:47 | 10.84517 | 106.71702 | 1118 ft | 143 kts | 245° |
| 2026-04-23 11:47 | 10.84160 | 106.70757 | 935 ft | 144 kts | 246° |
| 2026-04-23 11:47 | 10.83800 | 106.69799 | 799 ft | 145 kts | 244° |
| 2026-04-23 11:48 | 10.83436 | 106.68832 | 614 ft | 146 kts | 245° |
| 2026-04-23 11:48 | 10.83085 | 106.67900 | 400 ft | 140 kts | 244° |
| 2026-04-23 11:48 | 10.82732 | 106.66976 | 236 ft | 141 kts | 242° |
| 2026-04-23 11:48 | 10.82382 | 106.66046 | 46 ft | 138 kts | 242° |
| 2026-04-23 11:49 | 10.82075 | 106.65238 | 36 ft | 102 kts | 249° |
| 2026-04-23 11:49 | 10.81883 | 106.64725 | 36 ft | 56 kts | 249° |
| 2026-04-23 11:49 | 10.81758 | 106.64442 | 37 ft | 37 kts | 232° |
| 2026-04-23 11:49 | 10.81601 | 106.64304 | 35 ft | 24 kts | 204° |
| 2026-04-23 11:50 | 10.81452 | 106.64327 | 37 ft | 22 kts | 158° |
| 2026-04-23 11:50 | 10.81310 | 106.64381 | 37 ft | 22 kts | 160° |
| 2026-04-23 11:50 | 10.81256 | 106.64468 | 38 ft | 16 kts | 76° |
| 2026-04-23 11:50 | 10.81293 | 106.64568 | 38 ft | 15 kts | 69° |
| 2026-04-23 11:51 | 10.81337 | 106.64686 | 40 ft | 23 kts | 69° |
| 2026-04-23 11:51 | 10.81397 | 106.64846 | 43 ft | 25 kts | 70° |
| 2026-04-23 11:51 | 10.81461 | 106.65019 | 40 ft | 28 kts | 69° |
| 2026-04-23 11:51 | 10.81536 | 106.65211 | 38 ft | 30 kts | 69° |
| 2026-04-23 11:52 | 10.81613 | 106.65417 | 34 ft | 31 kts | 69° |
| 2026-04-23 11:52 | 10.81684 | 106.65607 | 35 ft | 27 kts | 69° |
| 2026-04-23 11:52 | 10.81731 | 106.65752 | 35 ft | 16 kts | 97° |
| 2026-04-23 11:52 | 10.81635 | 106.65802 | 36 ft | 16 kts | 187° |
| 2026-04-23 11:53 | 10.81518 | 106.65791 | 37 ft | 18 kts | 185° |
| 2026-04-23 11:53 | 10.81389 | 106.65779 | 37 ft | 20 kts | 185° |
| 2026-04-23 11:53 | 10.81286 | 106.65798 | 37 ft | 12 kts | 129° |
| 2026-04-23 11:53 | 10.81269 | 106.65856 | 36 ft | 7 kts | 127° |
| 2026-04-23 11:54 | 10.81226 | 106.65863 | 37 ft | 2 kts | 184° |
| 2026-04-23 11:54 | 10.81217 | 106.65862 | 37 ft | 1 kts | 186° |
| 2026-04-23 11:54 | 10.81214 | 106.65862 | 37 ft | 0 kts | 186° |
| 2026-04-23 11:54 | 10.81211 | 106.65862 | 37 ft | 0 kts | 185° |
| 2026-04-23 11:55 | 10.81209 | 106.65862 | 37 ft | 0 kts | 185° |